Time;durP1;ratioP1;P1;durP2;ratioP2;P2;SDS_P1;SDS_P2;PMS_P1;PMS_P2;Temp;Humidity;BMP_temperature;BMP_pressure;BME280_temperature;BME280_humidity;BME280_pressure;Samples;Min_cycle;Max_cycle;Signal;HPM_P1;HPM_P2
2022/04/25 00:00:59;;;;;;;6.80;2.28;;;;;;;15.32;72.16;92463.47;5050741;28;20045;-83
2022/04/25 00:03:25;;;;;;;8.48;2.50;;;;;;;15.37;72.04;92478.25;5050328;28;20045;-84
2022/04/25 00:05:54;;;;;;;6.13;2.45;;;;;;;15.39;71.83;92481.34;5050297;28;20075;-84
2022/04/25 00:08:21;;;;;;;8.18;2.50;;;;;;;15.39;72.66;92483.16;5050363;28;20040;-83
2022/04/25 00:10:48;;;;;;;8.20;2.20;;;;;;;15.02;72.55;92428.00;5050433;28;20037;-83
2022/04/25 00:13:15;;;;;;;9.50;2.60;;;;;;;15.34;72.80;92491.69;5050588;28;20049;-83
2022/04/25 00:15:42;;;;;;;6.43;2.10;;;;;;;15.25;72.58;92483.66;5050707;28;20052;-83
2022/04/25 00:18:09;;;;;;;9.68;2.20;;;;;;;15.17;72.93;92486.72;5050170;28;20641;-83
2022/04/25 00:20:36;;;;;;;9.60;3.17;;;;;;;15.25;73.00;92493.22;5050494;28;20044;-83
2022/04/25 00:23:05;;;;;;;10.20;3.13;;;;;;;14.81;72.79;92446.84;5050192;28;20171;-83
2022/04/25 00:25:32;;;;;;;8.85;2.80;;;;;;;15.10;73.72;92482.59;5050041;28;20041;-83
2022/04/25 00:28:00;;;;;;;12.52;3.28;;;;;;;14.50;74.43;92418.28;5050361;28;20041;-83
2022/04/25 00:30:28;;;;;;;9.63;2.60;;;;;;;15.03;72.67;92495.00;5050077;28;20036;-83
2022/04/25 00:32:56;;;;;;;6.53;2.55;;;;;;;14.87;73.06;92470.91;5050238;28;20041;-83
2022/04/25 00:35:23;;;;;;;6.50;2.70;;;;;;;14.79;72.84;92445.53;5049841;28;20510;-82
2022/04/25 00:37:49;;;;;;;6.68;2.42;;;;;;;14.82;72.89;92461.31;5050068;28;20045;-83
2022/04/25 00:40:19;;;;;;;10.55;3.80;;;;;;;14.98;72.86;92487.22;5050085;28;20036;-83
2022/04/25 00:42:46;;;;;;;11.93;3.30;;;;;;;14.82;73.35;92471.66;5050324;28;20049;-83
2022/04/25 00:45:13;;;;;;;5.50;2.80;;;;;;;14.74;73.15;92456.63;5049906;28;20041;-83
2022/04/25 00:47:40;;;;;;;6.70;3.25;;;;;;;14.74;73.77;92466.16;5049678;28;20045;-83
2022/04/25 00:50:09;;;;;;;6.43;3.28;;;;;;;14.62;73.96;92459.41;5049631;28;20045;-83
2022/04/25 00:52:36;;;;;;;7.57;2.58;;;;;;;14.68;75.13;92473.13;5050030;28;20400;-83
2022/04/25 00:55:07;;;;;;;6.07;2.38;;;;;;;13.95;76.07;92366.91;5049720;28;20037;-83
2022/04/25 00:57:36;;;;;;;9.32;2.50;;;;;;;14.37;76.14;92450.53;5047644;28;20041;-83
2022/04/25 01:00:06;;;;;;;6.05;2.80;;;;;;;14.35;76.87;92447.41;5049744;28;20052;-83
2022/04/25 01:02:33;;;;;;;11.95;3.17;;;;;;;14.46;76.89;92455.19;5049901;28;20067;-83
2022/04/25 01:05:00;;;;;;;5.45;2.50;;;;;;;14.43;76.92;92444.34;5049667;28;20056;-83
2022/04/25 01:07:27;;;;;;;6.88;2.55;;;;;;;14.28;77.26;92415.88;5049781;28;20041;-82
2022/04/25 01:09:55;;;;;;;5.70;2.78;;;;;;;14.40;77.36;92439.69;5049996;28;20045;-82
2022/04/25 01:12:22;;;;;;;10.90;2.80;;;;;;;14.38;76.90;92444.31;5049434;28;20437;-84
2022/04/25 01:14:58;;;;;;;8.75;3.00;;;;;;;14.39;76.91;92440.72;5049164;28;20104;-83
2022/04/25 01:17:25;;;;;;;12.05;3.40;;;;;;;14.34;77.17;92437.34;5048482;28;20041;-83
2022/04/25 01:19:52;;;;;;;10.07;2.85;;;;;;;14.00;77.75;92386.81;5049456;28;20045;-83
2022/04/25 01:22:22;;;;;;;11.23;3.72;;;;;;;14.03;77.76;92391.47;5049432;28;20052;-83
2022/04/25 01:27:53;;;;;;;9.75;3.55;;;;;;;13.65;77.79;92336.56;5049657;28;20056;-84
2022/04/25 01:30:20;;;;;;;8.73;2.97;;;;;;;13.76;78.66;92354.41;5049483;28;20060;-83
2022/04/25 01:32:47;;;;;;;11.27;3.17;;;;;;;14.21;78.00;92416.09;5049096;28;20041;-83
2022/04/25 01:35:14;;;;;;;10.48;3.08;;;;;;;14.11;78.32;92392.78;5049005;28;20059;-83
2022/04/25 01:37:41;;;;;;;9.05;3.58;;;;;;;14.26;77.76;92421.28;5048998;28;20040;-84
2022/04/25 01:40:11;;;;;;;10.05;3.10;;;;;;;14.29;78.16;92417.41;5049470;28;20518;-83
2022/04/25 01:42:38;;;;;;;9.68;3.20;;;;;;;14.30;78.26;92424.13;5049381;28;20041;-83
2022/04/25 01:45:06;;;;;;;7.00;2.47;;;;;;;14.15;77.61;92393.84;5049067;28;20052;-84
2022/04/25 01:47:33;;;;;;;8.15;2.65;;;;;;;14.16;77.34;92387.66;5048918;28;20052;-84
2022/04/25 01:49:59;;;;;;;7.97;3.20;;;;;;;14.18;77.99;92395.94;5049330;28;20040;-83
2022/04/25 01:52:32;;;;;;;6.18;2.55;;;;;;;14.22;78.24;92399.56;5049643;28;20430;-83
2022/04/25 01:55:01;;;;;;;8.65;2.90;;;;;;;13.61;78.52;92323.38;5049602;28;20045;-84
2022/04/25 01:57:30;;;;;;;6.85;2.90;;;;;;;14.07;79.21;92391.75;5049483;28;20139;-84
2022/04/25 01:59:57;;;;;;;7.63;3.40;;;;;;;13.66;79.87;92338.09;5049636;28;20040;-84
2022/04/25 02:02:23;;;;;;;5.80;2.42;;;;;;;14.06;79.42;92385.03;5049777;28;20404;-83
2022/04/25 02:04:50;;;;;;;6.25;2.40;;;;;;;13.89;79.58;92355.00;5049166;28;20140;-84
2022/04/25 02:07:17;;;;;;;7.47;2.92;;;;;;;13.94;79.88;92362.78;5049887;28;20045;-84
2022/04/25 02:09:44;;;;;;;6.82;2.63;;;;;;;13.93;79.60;92368.19;5049328;28;20041;-84
2022/04/25 02:12:11;;;;;;;4.70;2.53;;;;;;;13.77;79.87;92342.31;5049690;28;20052;-84
2022/04/25 02:14:41;;;;;;;6.65;3.15;;;;;;;13.73;79.63;92342.03;5049952;28;20098;-84
2022/04/25 02:17:09;;;;;;;7.97;3.17;;;;;;;13.96;80.12;92381.38;5051439;28;20052;-84
2022/04/25 02:19:38;;;;;;;8.40;3.05;;;;;;;13.79;80.18;92362.69;5050092;28;20041;-83
2022/04/25 02:22:05;;;;;;;7.65;3.05;;;;;;;13.33;80.04;92307.19;5049018;28;20045;-83
2022/04/25 02:24:32;;;;;;;7.57;2.63;;;;;;;13.82;80.67;92378.47;5048736;28;20041;-84
2022/04/25 02:26:59;;;;;;;6.07;2.42;;;;;;;13.99;80.09;92400.75;5021103;28;20060;-83
2022/04/25 02:29:26;;;;;;;8.13;3.00;;;;;;;13.94;80.55;92398.13;5052047;28;20051;-83
2022/04/25 02:31:55;;;;;;;7.18;2.50;;;;;;;13.96;81.44;92407.19;5052402;28;20045;-84
2022/04/25 02:34:22;;;;;;;6.97;2.80;;;;;;;13.75;81.32;92370.94;5052617;28;20045;-83
2022/04/25 02:36:49;;;;;;;8.45;2.47;;;;;;;13.87;81.73;92396.56;5052574;28;20052;-83
2022/04/25 02:39:15;;;;;;;7.30;3.00;;;;;;;13.33;81.79;92318.28;5052450;28;20392;-83
2022/04/25 02:41:42;;;;;;;7.22;2.97;;;;;;;13.80;82.31;92377.91;5052145;28;20048;-83
2022/04/25 02:44:09;;;;;;;7.45;2.72;;;;;;;13.54;83.19;92339.09;5052107;28;20484;-83
2022/04/25 02:46:36;;;;;;;5.40;2.53;;;;;;;13.77;82.91;92373.28;5052021;28;20052;-83
2022/04/25 02:49:04;;;;;;;8.38;2.63;;;;;;;13.35;83.22;92305.16;5052335;28;20037;-83
2022/04/25 02:51:31;;;;;;;7.55;3.08;;;;;;;13.54;83.84;92333.91;5051910;28;20041;-83
2022/04/25 02:53:58;;;;;;;6.13;2.33;;;;;;;13.29;83.44;92295.81;5051835;28;20480;-83
2022/04/25 02:56:25;;;;;;;8.98;3.13;;;;;;;13.74;83.96;92358.28;5051769;28;20049;-83
2022/04/25 02:58:52;;;;;;;5.82;2.70;;;;;;;13.25;83.67;92294.75;5051877;28;20048;-83
2022/04/25 03:01:18;;;;;;;6.63;2.88;;;;;;;13.45;84.23;92318.09;5052033;28;20045;-83
2022/04/25 03:03:45;;;;;;;8.68;3.35;;;;;;;13.69;83.72;92355.66;5051859;28;20481;-83
2022/04/25 03:06:13;;;;;;;8.90;3.22;;;;;;;13.67;84.23;92360.31;5051919;28;20077;-84
2022/04/25 03:08:41;;;;;;;5.47;2.83;;;;;;;13.64;84.88;92353.84;5052041;28;20048;-83
2022/04/25 03:11:09;;;;;;;9.80;3.47;;;;;;;13.32;84.54;92310.78;5051976;28;20388;-83
2022/04/25 03:13:36;;;;;;;7.15;2.83;;;;;;;13.38;84.93;92327.09;5051565;28;20041;-83
2022/04/25 03:16:04;;;;;;;7.13;3.33;;;;;;;13.61;84.59;92352.53;5051634;28;20041;-83
2022/04/25 03:18:31;;;;;;;9.50;3.10;;;;;;;13.35;84.96;92328.34;5051591;28;20059;-84
2022/04/25 03:20:59;;;;;;;10.05;2.92;;;;;;;13.37;85.33;92334.03;5051722;28;20469;-83
2022/04/25 03:23:28;;;;;;;9.63;2.97;;;;;;;13.57;85.33;92361.78;5051929;28;20056;-84
2022/04/25 03:25:54;;;;;;;12.55;3.63;;;;;;;13.44;85.35;92346.72;5052247;28;20045;-83
2022/04/25 03:28:22;;;;;;;6.63;3.03;;;;;;;13.42;85.71;92356.53;5051867;28;20045;-84
2022/04/25 03:30:49;;;;;;;8.88;3.35;;;;;;;13.28;84.84;92330.38;5051818;28;20531;-83
2022/04/25 03:33:17;;;;;;;10.60;3.70;;;;;;;13.05;85.78;92307.25;5051823;28;20056;-83
2022/04/25 03:35:46;;;;;;;8.75;3.03;;;;;;;13.33;85.32;92356.97;5051139;28;20047;-83
2022/04/25 03:38:14;;;;;;;11.45;3.70;;;;;;;13.27;84.77;92350.22;5051017;28;20044;-84
2022/04/25 03:40:43;;;;;;;12.15;3.05;;;;;;;13.57;85.35;92404.91;5050295;28;20048;-83
2022/04/25 03:43:10;;;;;;;8.55;3.90;;;;;;;13.60;84.93;92402.59;5051477;28;20123;-84
2022/04/25 03:45:39;;;;;;;7.38;3.85;;;;;;;13.31;86.69;92378.88;5051391;28;20419;-84
2022/04/25 03:48:06;;;;;;;10.95;4.38;;;;;;;13.15;89.29;92401.94;5051493;28;20045;-84
2022/04/25 03:50:33;;;;;;;10.18;4.05;;;;;;;12.84;91.77;92388.81;5050999;28;20500;-83
2022/04/25 03:53:06;;;;;;;10.98;3.85;;;;;;;12.95;92.06;92405.13;5051229;28;20045;-83
2022/04/25 03:58:20;;;;;;;10.05;3.65;;;;;;;12.65;92.15;92357.44;5050837;28;20051;-83
2022/04/25 04:00:48;;;;;;;8.57;3.97;;;;;;;12.82;92.18;92396.00;5051101;28;20543;-83
2022/04/25 04:03:18;;;;;;;11.52;5.60;;;;;;;13.01;92.23;92411.13;5050687;28;20043;-83
2022/04/25 04:05:45;;;;;;;11.13;4.55;;;;;;;13.10;89.60;92407.84;5050621;28;20048;-83
2022/04/25 04:08:12;;;;;;;13.70;4.95;;;;;;;13.20;88.99;92408.97;5050641;28;20044;-83
2022/04/25 04:10:39;;;;;;;10.88;4.35;;;;;;;13.27;88.16;92414.69;5050842;28;20044;-83
2022/04/25 04:13:07;;;;;;;8.90;3.88;;;;;;;13.25;87.57;92396.13;5050864;28;20044;-83
2022/04/25 04:15:36;;;;;;;8.70;3.80;;;;;;;13.32;86.71;92399.25;5050726;28;20048;-83
2022/04/25 04:18:04;;;;;;;10.93;3.50;;;;;;;13.43;86.59;92407.84;5050450;28;20495;-83
2022/04/25 04:20:31;;;;;;;9.82;3.58;;;;;;;13.56;86.08;92413.66;5050158;28;20052;-84
2022/04/25 04:22:58;;;;;;;11.75;3.53;;;;;;;13.61;85.74;92421.44;5050332;28;20041;-83
2022/04/25 04:25:25;;;;;;;10.18;3.40;;;;;;;13.66;85.16;92418.88;5050322;28;20041;-83
2022/04/25 04:27:52;;;;;;;9.30;3.40;;;;;;;13.66;85.32;92402.63;5050466;28;20137;-83
2022/04/25 04:30:19;;;;;;;12.68;4.03;;;;;;;13.66;85.00;92403.38;5050538;28;20139;-83
2022/04/25 04:32:47;;;;;;;15.60;2.85;;;;;;;13.75;84.89;92421.78;5050453;28;20083;-83
2022/04/25 04:36:17;;;;;;;11.82;4.40;;;;;;;13.84;85.19;92429.84;5050370;28;20111;-83
2022/04/25 04:38:05;;;;;;;9.90;3.70;;;;;;;13.83;84.63;92415.34;5049902;28;20045;-83
2022/04/25 04:40:32;;;;;;;10.25;3.22;;;;;;;14.04;84.39;92434.34;5049936;28;20041;-84
2022/04/25 04:42:59;;;;;;;12.38;4.68;;;;;;;14.04;84.06;92429.19;5050004;28;20488;-83
2022/04/25 04:45:27;;;;;;;11.88;3.47;;;;;;;14.21;83.58;92446.31;5049958;28;20037;-84
2022/04/25 04:47:55;;;;;;;14.75;4.13;;;;;;;14.12;82.63;92409.84;5050345;28;20136;-83
2022/04/25 04:50:22;;;;;;;9.98;3.75;;;;;;;14.38;82.50;92443.53;5050135;28;20079;-83
2022/04/25 04:52:50;;;;;;;10.35;4.90;;;;;;;14.30;81.94;92419.75;5050013;28;20045;-83
2022/04/25 04:55:18;;;;;;;14.85;5.82;;;;;;;14.47;82.03;92430.91;5049758;28;20041;-84
2022/04/25 04:57:46;;;;;;;15.57;4.22;;;;;;;14.63;80.90;92445.44;5050094;28;20041;-84
2022/04/25 05:00:15;;;;;;;12.88;4.05;;;;;;;14.67;80.52;92432.78;5049723;28;20499;-83
2022/04/25 05:02:42;;;;;;;10.80;4.10;;;;;;;14.77;79.91;92429.50;5049531;28;20045;-83
2022/04/25 05:05:12;;;;;;;15.55;4.53;;;;;;;14.79;79.38;92414.50;5049745;28;20056;-83
2022/04/25 05:07:39;;;;;;;14.02;3.80;;;;;;;15.15;78.91;92458.56;5049491;28;20136;-83
2022/04/25 05:10:07;;;;;;;19.20;5.53;;;;;;;15.19;78.54;92441.47;5049832;28;20056;-83
2022/04/25 05:12:47;;;;;;;18.30;3.95;;;;;;;15.40;77.84;92438.91;5049344;28;20091;-83
2022/04/25 05:15:14;;;;;;;12.38;3.35;;;;;;;15.69;75.35;92450.56;5049595;28;20041;-83
2022/04/25 05:17:42;;;;;;;8.77;3.42;;;;;;;15.73;75.01;92446.41;5049309;28;20071;-83
2022/04/25 05:20:12;;;;;;;14.63;4.07;;;;;;;15.92;74.10;92444.06;5049938;28;20469;-83
2022/04/25 05:22:41;;;;;;;13.52;3.20;;;;;;;16.09;73.41;92453.38;5049602;28;20464;-83
2022/04/25 05:25:09;;;;;;;12.48;2.85;;;;;;;16.20;71.44;92436.00;5049397;28;20056;-83
2022/04/25 05:27:36;;;;;;;15.80;3.63;;;;;;;16.53;70.61;92451.97;5049362;28;20488;-83
2022/04/25 05:30:02;;;;;;;13.10;3.20;;;;;;;16.50;69.03;92434.34;5049427;28;20041;-83
2022/04/25 05:32:41;;;;;;;13.43;4.72;;;;;;;16.84;68.29;92454.44;5049367;28;20049;-84
2022/04/25 05:35:09;;;;;;;10.63;2.65;;;;;;;17.08;66.74;92446.81;5049744;28;20040;-83
2022/04/25 05:37:37;;;;;;;10.68;3.08;;;;;;;17.17;65.79;92439.22;5048613;28;20045;-83
2022/04/25 05:40:05;;;;;;;16.70;3.35;;;;;;;17.30;65.06;92422.28;5049089;28;20503;-83
2022/04/25 05:42:32;;;;;;;10.48;3.97;;;;;;;17.57;63.57;92444.41;5049115;28;20049;-83
2022/04/25 05:45:00;;;;;;;10.63;2.80;;;;;;;17.77;63.17;92451.25;5049149;28;20041;-83
2022/04/25 05:47:27;;;;;;;9.68;2.53;;;;;;;18.06;61.16;92470.53;5049009;28;20045;-83
2022/04/25 05:52:40;;;;;;;9.20;2.63;;;;;;;18.40;60.25;92474.09;5049186;28;20144;-81
2022/04/25 05:55:07;;;;;;;16.83;2.88;;;;;;;18.04;60.03;92399.81;5048943;28;20045;-83
2022/04/25 05:57:34;;;;;;;12.07;3.33;;;;;;;18.82;58.50;92483.00;5049142;28;20048;-83
2022/04/25 06:00:01;;;;;;;9.88;2.75;;;;;;;19.01;56.56;92484.06;5048884;28;20049;-83
2022/04/25 06:02:28;;;;;;;7.55;3.42;;;;;;;19.12;55.74;92466.53;5049358;28;20056;-83
2022/04/25 06:04:55;;;;;;;10.10;2.70;;;;;;;19.17;54.90;92469.06;5050744;28;20430;-84
2022/04/25 06:07:22;;;;;;;15.52;2.90;;;;;;;19.35;55.04;92465.66;5051634;28;20150;-83
2022/04/25 06:09:50;;;;;;;12.15;2.15;;;;;;;19.42;54.01;92470.53;5052068;28;20052;-84
2022/04/25 06:12:17;;;;;;;9.63;2.38;;;;;;;19.49;53.08;92467.56;5053006;28;20451;-83
2022/04/25 06:14:44;;;;;;;15.10;3.03;;;;;;;19.49;52.52;92463.13;5052541;28;20049;-83
2022/04/25 06:17:13;;;;;;;11.20;3.05;;;;;;;19.40;53.10;92446.59;5052807;28;20076;-83
2022/04/25 06:19:40;;;;;;;15.63;4.00;;;;;;;19.55;52.58;92450.81;5052830;28;20053;-82
2022/04/25 06:22:07;;;;;;;9.95;2.13;;;;;;;19.56;52.06;92467.19;5052800;28;20037;-83
2022/04/25 06:24:33;;;;;;;9.20;3.25;;;;;;;19.46;52.22;92419.44;5052511;28;20396;-83
2022/04/25 06:27:02;;;;;;;9.90;2.53;;;;;;;19.79;51.78;92456.94;5052412;28;20052;-83
2022/04/25 06:29:30;;;;;;;9.60;2.42;;;;;;;19.82;50.37;92448.56;5052178;28;20071;-83
2022/04/25 06:31:57;;;;;;;8.65;2.47;;;;;;;20.09;50.24;92454.94;5052340;28;20099;-83
2022/04/25 06:34:24;;;;;;;10.98;2.47;;;;;;;19.99;48.40;92442.81;5052600;28;20087;-83
2022/04/25 06:36:51;;;;;;;10.75;2.38;;;;;;;20.24;49.16;92459.09;5052354;28;20476;-83
2022/04/25 06:39:18;;;;;;;12.93;2.53;;;;;;;20.29;48.53;92446.72;5052337;28;20396;-83
2022/04/25 06:41:46;;;;;;;9.43;1.90;;;;;;;20.61;48.19;92473.03;5052096;28;20044;-83
2022/04/25 06:44:14;;;;;;;13.85;2.75;;;;;;;20.73;47.17;92469.16;5052013;28;20554;-83
2022/04/25 06:46:42;;;;;;;7.90;2.53;;;;;;;20.77;46.97;92459.66;5052134;28;20044;-83
2022/04/25 06:49:21;;;;;;;12.95;3.03;;;;;;;20.96;46.39;92456.97;5052810;28;20053;-83
2022/04/25 06:51:48;;;;;;;12.18;2.10;;;;;;;20.91;46.08;92438.78;5052929;28;20047;-84
2022/04/25 06:54:15;;;;;;;10.30;2.63;;;;;;;21.24;45.93;92462.13;5052725;28;20049;-83
2022/04/25 06:56:42;;;;;;;10.88;2.50;;;;;;;21.35;45.18;92460.09;5052339;28;20064;-83
2022/04/25 06:59:09;;;;;;;12.75;1.90;;;;;;;21.42;45.28;92457.81;5052235;28;20781;-84
2022/04/25 07:01:39;;;;;;;10.68;2.70;;;;;;;21.54;45.00;92443.47;5052359;28;20060;-84
2022/04/25 07:04:06;;;;;;;11.75;1.95;;;;;;;21.59;44.59;92423.22;5051756;28;20044;-83
2022/04/25 07:06:33;;;;;;;11.13;2.45;;;;;;;21.87;43.53;92462.31;5051742;28;20040;-83
2022/04/25 07:09:00;;;;;;;14.63;3.30;;;;;;;22.01;43.51;92466.69;5051624;28;20503;-83
2022/04/25 07:11:27;;;;;;;10.52;2.60;;;;;;;22.01;42.93;92462.25;5051894;28;20365;-83
2022/04/25 07:13:55;;;;;;;12.85;2.35;;;;;;;22.11;43.22;92463.81;5050989;28;20476;-83
2022/04/25 07:16:24;;;;;;;13.90;3.47;;;;;;;22.06;42.37;92447.47;5051509;28;20095;-83
2022/04/25 07:18:52;;;;;;;15.10;2.15;;;;;;;22.33;43.02;92466.69;5051212;28;20404;-83
2022/04/25 07:29:33;;;;;;;9.65;3.08;;;;;;;22.59;40.91;92455.59;5051280;28;20055;-83
2022/04/25 07:32:00;;;;;;;7.25;1.98;;;;;;;22.70;40.12;92462.09;5051214;28;20056;-83
2022/04/25 07:34:28;;;;;;;11.18;2.22;;;;;;;22.74;40.74;92441.28;5051530;28;20044;-83
2022/04/25 07:36:55;;;;;;;14.73;2.78;;;;;;;22.83;40.07;92435.00;5052021;28;20049;-84
2022/04/25 07:39:23;;;;;;;10.02;2.00;;;;;;;23.09;40.32;92454.44;5052180;28;20049;-84
2022/04/25 07:41:51;;;;;;;14.23;2.20;;;;;;;22.89;38.18;92429.63;5052057;28;20049;-83
2022/04/25 07:44:18;;;;;;;8.57;2.03;;;;;;;23.11;38.23;92438.44;5051892;28;20044;-84
2022/04/25 07:46:46;;;;;;;13.82;2.63;;;;;;;23.18;39.23;92454.44;5051562;28;20049;-84
2022/04/25 07:49:13;;;;;;;10.98;1.92;;;;;;;23.11;38.54;92430.56;5051498;28;20037;-84
2022/04/25 07:51:41;;;;;;;11.60;2.28;;;;;;;23.26;37.82;92456.31;5051369;28;20037;-84
2022/04/25 07:54:11;;;;;;;11.35;2.15;;;;;;;22.76;37.13;92366.63;5051444;28;20477;-85
2022/04/25 07:56:38;;;;;;;9.52;2.60;;;;;;;23.08;38.38;92390.03;5051132;28;20144;-84
2022/04/25 07:59:06;;;;;;;16.77;2.38;;;;;;;22.83;36.07;92359.06;5051006;28;20102;-85
2022/04/25 08:01:34;;;;;;;14.10;2.00;;;;;;;23.56;36.65;92440.00;5050723;28;20051;-84
2022/04/25 08:04:01;;;;;;;12.57;2.33;;;;;;;23.73;36.63;92445.22;5050732;28;20496;-84
2022/04/25 08:06:28;;;;;;;11.13;3.28;;;;;;;23.84;36.70;92434.41;5050487;28;20053;-84
2022/04/25 08:08:57;;;;;;;10.95;2.13;;;;;;;23.90;36.09;92454.16;5050423;28;20052;-85
2022/04/25 08:11:26;;;;;;;10.20;2.40;;;;;;;23.89;35.65;92434.25;5050810;28;20049;-85
2022/04/25 08:19:21;;;;;;;11.95;3.17;;;;;;;24.55;34.64;92438.38;5050204;28;20082;-85
2022/04/25 08:21:49;;;;;;;14.35;2.03;;;;;;;24.40;34.23;92444.91;5050282;28;20111;-84
2022/04/25 08:24:18;;;;;;;12.20;2.75;;;;;;;24.31;33.44;92425.81;5050284;28;20037;-86
2022/04/25 08:26:45;;;;;;;10.50;1.80;;;;;;;24.22;34.59;92402.25;5049769;28;20055;-84
2022/04/25 08:29:12;;;;;;;7.47;2.13;;;;;;;24.25;34.87;92422.59;5049949;28;20049;-85
2022/04/25 08:31:39;;;;;;;10.75;2.53;;;;;;;24.44;34.30;92433.78;5049960;28;20037;-85
2022/04/25 08:34:08;;;;;;;9.05;2.38;;;;;;;24.31;35.06;92436.31;5049996;28;20044;-84
2022/04/25 08:36:36;;;;;;;13.43;2.55;;;;;;;24.05;33.78;92389.13;5050234;28;20040;-85
2022/04/25 08:39:04;;;;;;;8.60;1.95;;;;;;;24.12;33.35;92382.34;5050152;28;20442;-86
2022/04/25 08:41:38;;;;;;;13.90;2.67;;;;;;;24.48;32.10;92424.22;5049747;28;20558;-86
2022/04/25 08:44:06;;;;;;;13.13;3.40;;;;;;;24.62;33.36;92419.47;5049708;28;20045;-86
2022/04/25 08:46:36;;;;;;;20.67;2.22;;;;;;;24.75;34.24;92422.19;5049517;28;20045;-86
2022/04/25 08:49:04;;;;;;;18.27;2.95;;;;;;;24.40;34.48;92370.66;5050116;28;20059;-86
2022/04/25 08:51:34;;;;;;;8.32;1.60;;;;;;;24.80;34.28;92422.78;5049596;28;20049;-85
2022/04/25 08:54:03;;;;;;;13.32;2.10;;;;;;;24.83;30.88;92416.16;5049489;28;20084;-88
2022/04/25 08:56:30;;;;;;;14.43;2.45;;;;;;;24.54;31.29;92371.19;5049191;28;20048;-88
2022/04/25 08:59:00;;;;;;;9.27;1.90;;;;;;;24.75;31.06;92428.22;5049721;28;20048;-84
2022/04/25 09:01:27;;;;;;;10.63;1.98;;;;;;;24.70;31.85;92428.41;5049569;28;20052;-86
2022/04/25 09:03:54;;;;;;;10.77;1.90;;;;;;;24.37;30.70;92372.06;5050019;28;20041;-85
2022/04/25 09:06:21;;;;;;;10.90;2.30;;;;;;;24.49;30.54;92402.13;5049312;28;20055;-86
2022/04/25 09:08:48;;;;;;;9.95;1.70;;;;;;;24.67;31.61;92414.06;5049547;28;20063;-86
2022/04/25 09:14:02;;;;;;;11.15;2.00;;;;;;;24.73;31.87;92408.63;5049461;28;20171;-86
2022/04/25 09:16:29;;;;;;;7.38;2.30;;;;;;;24.44;31.83;92350.53;5049583;28;20045;-87
2022/04/25 09:18:56;;;;;;;8.38;2.17;;;;;;;24.84;31.81;92403.81;5049476;28;20044;-87
2022/04/25 09:21:23;;;;;;;16.13;2.50;;;;;;;24.53;32.34;92353.91;5049842;28;20392;-87
2022/04/25 09:23:50;;;;;;;13.85;2.22;;;;;;;24.40;31.09;92358.28;5050040;28;20048;-88
2022/04/25 09:26:20;;;;;;;11.30;2.33;;;;;;;24.66;30.73;92359.22;5049300;28;20585;-88
2022/04/25 09:28:48;;;;;;;12.82;2.13;;;;;;;24.46;31.33;92319.53;5049757;28;20148;-87
2022/04/25 09:31:18;;;;;;;11.73;2.45;;;;;;;24.69;31.92;92329.72;5049908;28;20551;-87
2022/04/25 09:33:45;;;;;;;13.00;2.80;;;;;;;25.11;31.58;92393.88;5046138;28;20045;-87
2022/04/25 09:36:14;;;;;;;15.05;2.35;;;;;;;25.11;30.19;92378.09;5047378;28;20041;-88
2022/04/25 09:38:51;;;;;;;12.57;1.95;;;;;;;25.17;30.24;92395.19;5048284;28;20135;-88
2022/04/25 09:41:18;;;;;;;12.85;2.88;;;;;;;24.81;27.15;92350.81;5049925;28;20421;-87
2022/04/25 09:43:47;;;;;;;14.07;2.10;;;;;;;24.90;26.40;92357.88;5050130;28;20144;-87
2022/04/25 09:46:15;;;;;;;9.77;1.88;;;;;;;24.71;27.31;92318.91;5049320;28;20480;-89
2022/04/25 09:49:02;;;;;;;12.85;2.40;;;;;;;25.35;27.40;92394.00;5049886;28;20131;-92
2022/04/25 09:51:30;;;;;;;10.02;2.10;;;;;;;24.78;26.88;92304.16;5049805;28;20091;-88
2022/04/25 09:53:57;;;;;;;11.05;1.65;;;;;;;25.24;26.52;92356.06;5049622;28;20531;-88
2022/04/25 09:56:33;;;;;;;11.95;1.40;;;;;;;25.44;25.61;92386.03;5049724;28;20404;-88
2022/04/25 09:59:03;;;;;;;13.02;3.13;;;;;;;25.03;27.44;92330.56;5049349;28;20041;-86
2022/04/25 10:01:31;;;;;;;10.00;2.03;;;;;;;25.06;27.02;92329.94;5049212;28;20092;-89
2022/04/25 10:03:58;;;;;;;8.85;1.75;;;;;;;25.17;28.03;92324.25;5049252;28;20052;-88
2022/04/25 10:06:34;;;;;;;18.60;2.47;;;;;;;25.56;28.58;92380.09;5048843;28;20056;-87
2022/04/25 10:09:03;;;;;;;13.55;1.40;;;;;;;25.40;27.97;92387.75;5049217;28;20083;-86
2022/04/25 10:11:33;;;;;;;8.70;2.17;;;;;;;25.04;28.74;92333.97;5049119;28;20041;-88
2022/04/25 10:14:01;;;;;;;5.63;1.60;;;;;;;25.60;29.05;92380.94;5052080;28;20037;-87
2022/04/25 10:16:31;;;;;;;6.70;2.15;;;;;;;25.82;27.61;92378.28;5049893;28;20045;-90
2022/04/25 10:18:59;;;;;;;10.98;1.65;;;;;;;25.94;28.32;92382.78;5048983;28;20045;-88
2022/04/25 10:21:29;;;;;;;8.45;2.35;;;;;;;25.91;27.14;92380.81;5048426;28;20087;-87
2022/04/25 10:23:58;;;;;;;11.45;1.38;;;;;;;25.22;27.63;92284.63;5048812;28;20049;-87
2022/04/25 10:26:26;;;;;;;10.68;1.83;;;;;;;25.51;27.79;92329.53;5048956;28;20090;-88
2022/04/25 10:29:07;;;;;;;15.77;1.58;;;;;;;25.41;28.29;92347.22;5048782;28;20040;-86
2022/04/25 10:31:38;;;;;;;12.73;1.95;;;;;;;25.26;28.53;92361.00;5048696;28;20056;-87
2022/04/25 10:34:09;;;;;;;9.63;2.38;;;;;;;25.03;28.63;92325.31;5050150;28;20044;-85
2022/04/25 10:36:55;;;;;;;7.00;1.35;;;;;;;25.00;27.11;92298.91;5049731;28;20476;-87
2022/04/25 10:39:24;;;;;;;10.32;1.45;;;;;;;25.14;27.15;92293.38;5048626;28;20395;-87
2022/04/25 10:44:53;;;;;;;10.80;1.88;;;;;;;25.88;25.02;92375.09;5048591;28;20055;-87
2022/04/25 10:47:22;;;;;;;14.07;1.80;;;;;;;25.86;23.93;92360.72;5048635;28;20041;-88
2022/04/25 10:50:08;;;;;;;4.90;1.15;;;;;;;25.15;24.98;92245.00;5051511;28;20136;-87
2022/04/25 10:53:02;;;;;;;9.70;1.38;;;;;;;26.35;25.36;92367.16;5053219;28;20076;-89
2022/04/25 10:55:45;;;;;;;8.15;1.73;;;;;;;26.25;25.31;92321.00;5052593;28;20055;-88
2022/04/25 10:58:22;;;;;;;7.65;0.77;;;;;;;26.67;23.67;92354.19;5052529;28;20056;-88
2022/04/25 11:00:57;;;;;;;15.30;1.50;;;;;;;26.68;24.79;92355.72;5052976;28;20048;-89
2022/04/25 11:03:32;;;;;;;6.30;1.45;;;;;;;26.80;24.53;92355.69;5053163;28;20048;-90
2022/04/25 11:06:06;;;;;;;12.18;1.30;;;;;;;26.95;23.47;92374.56;5052437;28;20102;-87
2022/04/25 11:08:39;;;;;;;8.52;1.23;;;;;;;26.84;23.44;92347.13;5052829;28;20098;-88
2022/04/25 11:11:13;;;;;;;8.43;1.67;;;;;;;26.87;23.44;92370.16;5051548;28;20064;-85
2022/04/25 11:14:12;;;;;;;8.90;1.33;;;;;;;26.59;24.75;92331.38;5052442;28;20048;-88
2022/04/25 11:16:42;;;;;;;9.70;1.27;;;;;;;26.58;23.05;92295.59;5052788;28;20049;-90
2022/04/25 11:19:48;;;;;;;6.13;1.38;;;;;;;26.58;22.55;92274.53;5052248;28;20147;-91
2022/04/25 11:22:48;;;;;;;7.10;1.15;;;;;;;26.53;22.34;92299.22;5051420;28;20037;-87
2022/04/25 11:25:41;;;;;;;7.88;1.15;;;;;;;27.03;22.68;92359.75;5052318;28;20127;-88
2022/04/25 11:28:13;;;;;;;7.00;1.42;;;;;;;26.98;20.71;92379.16;5050749;28;20139;-90
2022/04/25 11:31:16;;;;;;;5.97;1.83;;;;;;;26.71;22.09;92341.13;5050146;28;20076;-92
2022/04/25 11:33:58;;;;;;;4.70;1.30;;;;;;;26.69;21.52;92325.63;5046258;28;20135;-90
2022/04/25 11:36:40;;;;;;;8.55;1.10;;;;;;;27.15;19.08;92369.47;5051598;28;20049;-90
2022/04/25 11:42:03;;;;;;;4.30;0.60;;;;;;;27.57;20.66;92358.53;5051986;28;20537;-89
2022/04/25 11:44:50;;;;;;;4.90;0.73;;;;;;;27.54;21.53;92355.81;5051984;28;20453;-92
2022/04/25 11:47:45;;;;;;;9.15;1.05;;;;;;;26.78;20.83;92307.84;5051875;28;20040;-88
2022/04/25 11:50:29;;;;;;;11.40;0.93;;;;;;;27.60;20.79;92373.69;5044750;28;20392;-91
2022/04/25 11:53:10;;;;;;;7.65;0.90;;;;;;;27.73;21.13;92363.09;5050687;28;20392;-91
2022/04/25 11:55:51;;;;;;;8.07;0.93;;;;;;;27.27;20.59;92331.75;5051332;28;20041;-91
2022/04/25 11:58:58;;;;;;;4.70;1.13;;;;;;;26.59;21.61;92261.03;5050634;28;20552;-92
2022/04/25 12:01:56;;;;;;;7.28;1.45;;;;;;;26.20;21.46;92276.44;5049652;28;20135;-95
2022/04/25 12:04:46;;;;;;;5.15;1.08;;;;;;;25.97;21.93;92305.84;5049137;28;20053;-92
2022/04/25 12:07:37;;;;;;;8.20;0.85;;;;;;;25.65;22.70;92263.50;5051351;28;20381;-89
2022/04/25 12:16:18;;;;;;;6.60;1.17;;;;;;;26.79;23.04;92324.41;4989420;28;20556;-89
2022/04/25 12:19:00;;;;;;;4.43;1.40;;;;;;;27.29;21.25;92350.63;4972800;28;20449;-92